Wetterdaten für den Flughafen Lübeck Blankensee


ADDS - METARS form results Aviation Digital Data Service (ADDS) Output produced by METARs form (0607 UTC 23 January 2018)
found at http://www.aviationweather.gov/adds/metars/
 
EDDH 230550Z 13004KT 110V170 1200 R23/P2000N R15/1400N BR OVC001 02/02 Q1017 TEMPO 0700 -DZ FG
TAF EDDH 230500Z 2306/2412 15003KT 0700 FG OVC001 BECMG 2306/2309 21007KT 3000 BR OVC003 PROB30 TEMPO 2307/2310 5000 -DZ SCT007 BKN015 BECMG 2310/2312 6000 BKN008 TEMPO 2310/2312 SCT008 SCT025 BECMG 2312/2315 FEW012 BKN035 BECMG 2317/2319 22015G25KT PROB30 TEMPO 2319/2322 4000 -RADZ BKN009 BECMG 2322/2401 OVC012 TEMPO 2322/2409 24009KT 3000 -RADZ OVC006 PROB40 TEMPO 2409/2412 SCT008 BKN020

Nord: Hamburg, Lübeck
Ost: Schwerin, Rostock
Süd: Hannover
West: Bremen, Nordhloz

Copyright © 2016 Flugschule Hohensee